sensor_id;sensor_type;location;lat;lon;timestamp;temperature;humidity
39099;DHT22;24844;52.380;7.018;2022-10-12T00:01:13;6.70;99.90
39099;DHT22;24844;52.380;7.018;2022-10-12T00:03:39;6.70;99.90
39099;DHT22;24844;52.380;7.018;2022-10-12T00:06:08;6.70;99.90
39099;DHT22;24844;52.380;7.018;2022-10-12T00:08:35;6.60;99.90
39099;DHT22;24844;52.380;7.018;2022-10-12T00:11:01;6.70;99.90
39099;DHT22;24844;52.380;7.018;2022-10-12T00:13:27;6.60;99.90
39099;DHT22;24844;52.380;7.018;2022-10-12T00:15:53;6.60;99.90
39099;DHT22;24844;52.380;7.018;2022-10-12T00:18:19;6.60;99.90
39099;DHT22;24844;52.380;7.018;2022-10-12T00:20:44;6.60;99.90
39099;DHT22;24844;52.380;7.018;2022-10-12T00:23:10;6.60;99.90
39099;DHT22;24844;52.380;7.018;2022-10-12T00:25:39;6.60;99.90
39099;DHT22;24844;52.380;7.018;2022-10-12T00:28:05;6.60;99.90
39099;DHT22;24844;52.380;7.018;2022-10-12T00:30:31;6.60;99.90
39099;DHT22;24844;52.380;7.018;2022-10-12T00:32:57;6.60;99.90
39099;DHT22;24844;52.380;7.018;2022-10-12T00:35:23;6.60;99.90
39099;DHT22;24844;52.380;7.018;2022-10-12T00:37:53;6.60;99.90
39099;DHT22;24844;52.380;7.018;2022-10-12T00:40:19;6.50;99.90
39099;DHT22;24844;52.380;7.018;2022-10-12T00:42:45;6.50;99.90
39099;DHT22;24844;52.380;7.018;2022-10-12T00:45:10;6.40;99.90
39099;DHT22;24844;52.380;7.018;2022-10-12T00:47:47;6.40;99.90
39099;DHT22;24844;52.380;7.018;2022-10-12T00:50:21;6.40;99.90
39099;DHT22;24844;52.380;7.018;2022-10-12T00:52:57;6.40;99.90
39099;DHT22;24844;52.380;7.018;2022-10-12T00:55:28;6.30;99.90
39099;DHT22;24844;52.380;7.018;2022-10-12T00:57:55;6.30;99.90
39099;DHT22;24844;52.380;7.018;2022-10-12T01:00:21;6.30;99.90
39099;DHT22;24844;52.380;7.018;2022-10-12T01:02:50;6.30;99.90
39099;DHT22;24844;52.380;7.018;2022-10-12T01:05:17;6.30;99.90
39099;DHT22;24844;52.380;7.018;2022-10-12T01:07:43;6.30;99.90
39099;DHT22;24844;52.380;7.018;2022-10-12T01:10:09;6.30;99.90
39099;DHT22;24844;52.380;7.018;2022-10-12T01:12:36;6.20;99.90
39099;DHT22;24844;52.380;7.018;2022-10-12T01:15:03;6.20;99.90
39099;DHT22;24844;52.380;7.018;2022-10-12T01:25:57;6.00;99.90
39099;DHT22;24844;52.380;7.018;2022-10-12T01:37:10;5.90;99.90
39099;DHT22;24844;52.380;7.018;2022-10-12T01:39:40;6.00;99.90
39099;DHT22;24844;52.380;7.018;2022-10-12T01:42:09;6.00;99.90
39099;DHT22;24844;52.380;7.018;2022-10-12T01:44:36;6.00;99.90
39099;DHT22;24844;52.380;7.018;2022-10-12T01:47:02;5.90;99.90
39099;DHT22;24844;52.380;7.018;2022-10-12T01:49:30;5.90;99.90
39099;DHT22;24844;52.380;7.018;2022-10-12T02:00:03;6.10;99.90
39099;DHT22;24844;52.380;7.018;2022-10-12T02:02:45;6.10;99.90
39099;DHT22;24844;52.380;7.018;2022-10-12T02:08:14;6.00;99.90
39099;DHT22;24844;52.380;7.018;2022-10-12T02:10:46;6.10;99.90
39099;DHT22;24844;52.380;7.018;2022-10-12T02:13:16;5.90;99.90
39099;DHT22;24844;52.380;7.018;2022-10-12T02:15:43;6.00;99.90
39099;DHT22;24844;52.380;7.018;2022-10-12T02:18:11;6.00;99.90
39099;DHT22;24844;52.380;7.018;2022-10-12T02:20:39;6.00;99.90
39099;DHT22;24844;52.380;7.018;2022-10-12T02:23:07;6.00;99.90
39099;DHT22;24844;52.380;7.018;2022-10-12T02:25:34;5.90;99.90
39099;DHT22;24844;52.380;7.018;2022-10-12T02:28:07;5.80;99.90
39099;DHT22;24844;52.380;7.018;2022-10-12T02:30:37;5.90;99.90
39099;DHT22;24844;52.380;7.018;2022-10-12T02:33:31;6.00;99.90
39099;DHT22;24844;52.380;7.018;2022-10-12T02:36:01;6.00;99.90
39099;DHT22;24844;52.380;7.018;2022-10-12T02:38:34;6.00;99.90
39099;DHT22;24844;52.380;7.018;2022-10-12T02:41:05;6.00;99.90
39099;DHT22;24844;52.380;7.018;2022-10-12T02:43:49;6.00;99.90
39099;DHT22;24844;52.380;7.018;2022-10-12T02:46:18;6.00;99.90
39099;DHT22;24844;52.380;7.018;2022-10-12T02:48:45;5.90;99.90
39099;DHT22;24844;52.380;7.018;2022-10-12T02:51:12;5.90;99.90
39099;DHT22;24844;52.380;7.018;2022-10-12T02:53:39;5.80;99.90
39099;DHT22;24844;52.380;7.018;2022-10-12T02:56:10;5.80;99.90
39099;DHT22;24844;52.380;7.018;2022-10-12T02:58:36;5.70;99.90
39099;DHT22;24844;52.380;7.018;2022-10-12T03:01:02;5.70;99.90
39099;DHT22;24844;52.380;7.018;2022-10-12T03:03:27;5.70;99.90
39099;DHT22;24844;52.380;7.018;2022-10-12T03:05:53;5.60;99.90
39099;DHT22;24844;52.380;7.018;2022-10-12T03:08:19;5.60;99.90
39099;DHT22;24844;52.380;7.018;2022-10-12T03:10:44;5.60;99.90
39099;DHT22;24844;52.380;7.018;2022-10-12T03:13:10;5.50;99.90
39099;DHT22;24844;52.380;7.018;2022-10-12T03:15:36;5.60;99.90
39099;DHT22;24844;52.380;7.018;2022-10-12T03:18:01;5.50;99.90
39099;DHT22;24844;52.380;7.018;2022-10-12T03:20:27;5.50;99.90
39099;DHT22;24844;52.380;7.018;2022-10-12T03:22:52;5.40;99.90
39099;DHT22;24844;52.380;7.018;2022-10-12T03:25:18;5.40;99.90
39099;DHT22;24844;52.380;7.018;2022-10-12T03:27:44;5.40;99.90
39099;DHT22;24844;52.380;7.018;2022-10-12T03:30:10;5.40;99.90
39099;DHT22;24844;52.380;7.018;2022-10-12T03:32:36;5.50;99.90
39099;DHT22;24844;52.380;7.018;2022-10-12T03:35:02;5.50;99.90
39099;DHT22;24844;52.380;7.018;2022-10-12T03:37:28;5.60;99.90
39099;DHT22;24844;52.380;7.018;2022-10-12T03:39:53;5.60;99.90
39099;DHT22;24844;52.380;7.018;2022-10-12T03:42:19;5.70;99.90
39099;DHT22;24844;52.380;7.018;2022-10-12T03:44:44;5.60;99.90
39099;DHT22;24844;52.380;7.018;2022-10-12T03:47:10;5.60;99.90
39099;DHT22;24844;52.380;7.018;2022-10-12T03:49:35;5.50;99.90
39099;DHT22;24844;52.380;7.018;2022-10-12T03:52:01;5.50;99.90
39099;DHT22;24844;52.380;7.018;2022-10-12T03:54:26;5.50;99.90
39099;DHT22;24844;52.380;7.018;2022-10-12T03:56:52;5.50;99.90
39099;DHT22;24844;52.380;7.018;2022-10-12T03:59:17;5.50;99.90
39099;DHT22;24844;52.380;7.018;2022-10-12T04:01:43;5.50;99.90
39099;DHT22;24844;52.380;7.018;2022-10-12T04:04:09;5.50;99.90
39099;DHT22;24844;52.380;7.018;2022-10-12T04:06:35;5.50;99.90
39099;DHT22;24844;52.380;7.018;2022-10-12T04:09:00;5.50;99.90
39099;DHT22;24844;52.380;7.018;2022-10-12T04:11:26;5.40;99.90
39099;DHT22;24844;52.380;7.018;2022-10-12T04:13:51;5.40;99.90
39099;DHT22;24844;52.380;7.018;2022-10-12T04:16:17;5.40;99.90
39099;DHT22;24844;52.380;7.018;2022-10-12T04:18:42;5.40;99.90
39099;DHT22;24844;52.380;7.018;2022-10-12T04:21:12;5.40;99.90
39099;DHT22;24844;52.380;7.018;2022-10-12T04:23:38;5.40;99.90
39099;DHT22;24844;52.380;7.018;2022-10-12T04:26:04;5.40;99.90
39099;DHT22;24844;52.380;7.018;2022-10-12T04:28:29;5.40;99.90
39099;DHT22;24844;52.380;7.018;2022-10-12T04:30:55;5.40;99.90
39099;DHT22;24844;52.380;7.018;2022-10-12T04:33:20;5.40;99.90
39099;DHT22;24844;52.380;7.018;2022-10-12T04:35:46;5.30;99.90
39099;DHT22;24844;52.380;7.018;2022-10-12T04:38:12;5.30;99.90
39099;DHT22;24844;52.380;7.018;2022-10-12T04:40:37;5.30;99.90
39099;DHT22;24844;52.380;7.018;2022-10-12T04:43:03;5.20;99.90
39099;DHT22;24844;52.380;7.018;2022-10-12T04:45:29;5.20;99.90
39099;DHT22;24844;52.380;7.018;2022-10-12T04:47:54;5.10;99.90
39099;DHT22;24844;52.380;7.018;2022-10-12T04:50:20;5.00;99.90
39099;DHT22;24844;52.380;7.018;2022-10-12T04:52:46;5.10;99.90
39099;DHT22;24844;52.380;7.018;2022-10-12T04:55:11;5.00;99.90
39099;DHT22;24844;52.380;7.018;2022-10-12T04:57:37;5.00;99.90
39099;DHT22;24844;52.380;7.018;2022-10-12T05:00:03;5.00;99.90
39099;DHT22;24844;52.380;7.018;2022-10-12T05:02:29;5.00;99.90
39099;DHT22;24844;52.380;7.018;2022-10-12T05:04:54;5.00;99.90
39099;DHT22;24844;52.380;7.018;2022-10-12T05:07:20;4.90;99.90
39099;DHT22;24844;52.380;7.018;2022-10-12T05:09:45;5.00;99.90
39099;DHT22;24844;52.380;7.018;2022-10-12T05:12:11;5.00;99.90
39099;DHT22;24844;52.380;7.018;2022-10-12T05:14:37;5.00;99.90
39099;DHT22;24844;52.380;7.018;2022-10-12T08:06:23;9.10;99.90
39099;DHT22;24844;52.380;7.018;2022-10-12T08:08:49;9.40;99.90
39099;DHT22;24844;52.380;7.018;2022-10-12T08:11:16;9.90;99.90
39099;DHT22;24844;52.380;7.018;2022-10-12T08:13:42;10.70;99.90
39099;DHT22;24844;52.380;7.018;2022-10-12T08:16:14;11.30;99.90
39099;DHT22;24844;52.380;7.018;2022-10-12T08:18:40;11.00;99.90
39099;DHT22;24844;52.380;7.018;2022-10-12T08:21:08;11.10;99.90
39099;DHT22;24844;52.380;7.018;2022-10-12T08:23:34;11.30;99.90
39099;DHT22;24844;52.380;7.018;2022-10-12T08:26:01;11.20;99.90
39099;DHT22;24844;52.380;7.018;2022-10-12T08:28:27;11.20;99.90
39099;DHT22;24844;52.380;7.018;2022-10-12T08:30:52;11.40;99.90
39099;DHT22;24844;52.380;7.018;2022-10-12T08:33:18;11.30;99.90
39099;DHT22;24844;52.380;7.018;2022-10-12T08:35:45;11.30;99.90
39099;DHT22;24844;52.380;7.018;2022-10-12T08:38:12;11.50;99.90
39099;DHT22;24844;52.380;7.018;2022-10-12T08:40:48;11.70;99.90
39099;DHT22;24844;52.380;7.018;2022-10-12T08:46:18;12.30;99.90
39099;DHT22;24844;52.380;7.018;2022-10-12T08:49:09;12.00;99.90
39099;DHT22;24844;52.380;7.018;2022-10-12T08:51:48;12.20;99.90
39099;DHT22;24844;52.380;7.018;2022-10-12T08:54:18;11.90;99.90
39099;DHT22;24844;52.380;7.018;2022-10-12T08:56:44;11.90;99.90
39099;DHT22;24844;52.380;7.018;2022-10-12T08:59:16;11.90;99.90
39099;DHT22;24844;52.380;7.018;2022-10-12T09:01:51;12.40;99.90
39099;DHT22;24844;52.380;7.018;2022-10-12T09:04:43;12.90;99.90
39099;DHT22;24844;52.380;7.018;2022-10-12T09:07:20;12.80;99.90
39099;DHT22;24844;52.380;7.018;2022-10-12T09:15:57;12.10;99.90
39099;DHT22;24844;52.380;7.018;2022-10-12T09:21:02;12.50;99.90
39099;DHT22;24844;52.380;7.018;2022-10-12T09:23:34;12.60;99.90
39099;DHT22;24844;52.380;7.018;2022-10-12T09:26:17;12.70;99.90
39099;DHT22;24844;52.380;7.018;2022-10-12T09:28:54;12.40;99.90
39099;DHT22;24844;52.380;7.018;2022-10-12T09:32:09;12.70;99.90
39099;DHT22;24844;52.380;7.018;2022-10-12T09:34:37;12.70;99.90
39099;DHT22;24844;52.380;7.018;2022-10-12T09:37:04;12.80;99.90
39099;DHT22;24844;52.380;7.018;2022-10-12T09:39:35;13.00;99.90
39099;DHT22;24844;52.380;7.018;2022-10-12T09:42:02;13.20;99.90
39099;DHT22;24844;52.380;7.018;2022-10-12T09:47:02;13.20;99.90
39099;DHT22;24844;52.380;7.018;2022-10-12T09:49:41;13.70;99.90
39099;DHT22;24844;52.380;7.018;2022-10-12T09:52:07;13.80;99.90
39099;DHT22;24844;52.380;7.018;2022-10-12T09:54:33;14.30;99.90
39099;DHT22;24844;52.380;7.018;2022-10-12T09:56:58;14.80;99.90
39099;DHT22;24844;52.380;7.018;2022-10-12T09:59:42;15.10;99.90
39099;DHT22;24844;52.380;7.018;2022-10-12T10:04:37;16.20;99.90
39099;DHT22;24844;52.380;7.018;2022-10-12T10:07:30;15.70;99.90
39099;DHT22;24844;52.380;7.018;2022-10-12T10:14:56;16.90;99.90
39099;DHT22;24844;52.380;7.018;2022-10-12T10:17:28;17.10;99.90
39099;DHT22;24844;52.380;7.018;2022-10-12T10:19:57;17.20;99.90
39099;DHT22;24844;52.380;7.018;2022-10-12T10:22:23;16.90;99.90
39099;DHT22;24844;52.380;7.018;2022-10-12T10:24:54;17.30;99.90
39099;DHT22;24844;52.380;7.018;2022-10-12T10:27:34;17.90;99.90
39099;DHT22;24844;52.380;7.018;2022-10-12T10:32:41;19.40;99.90
39099;DHT22;24844;52.380;7.018;2022-10-12T10:37:42;21.00;99.90
39099;DHT22;24844;52.380;7.018;2022-10-12T10:42:52;19.80;99.90
39099;DHT22;24844;52.380;7.018;2022-10-12T10:45:24;21.80;99.90
39099;DHT22;24844;52.380;7.018;2022-10-12T10:47:50;22.50;99.60
39099;DHT22;24844;52.380;7.018;2022-10-12T10:50:23;22.00;96.90
39099;DHT22;24844;52.380;7.018;2022-10-12T10:52:55;21.40;97.30
39099;DHT22;24844;52.380;7.018;2022-10-12T10:55:30;22.10;96.40
39099;DHT22;24844;52.380;7.018;2022-10-12T10:58:03;23.00;95.00
39099;DHT22;24844;52.380;7.018;2022-10-12T11:00:32;23.50;95.00
39099;DHT22;24844;52.380;7.018;2022-10-12T11:03:03;22.30;94.50
39099;DHT22;24844;52.380;7.018;2022-10-12T11:05:34;23.00;95.10
39099;DHT22;24844;52.380;7.018;2022-10-12T11:11:11;21.00;92.80
39099;DHT22;24844;52.380;7.018;2022-10-12T11:13:42;20.50;94.40
39099;DHT22;24844;52.380;7.018;2022-10-12T11:18:42;19.10;96.70
39099;DHT22;24844;52.380;7.018;2022-10-12T11:21:22;18.70;97.60
39099;DHT22;24844;52.380;7.018;2022-10-12T11:24:16;18.80;98.50
39099;DHT22;24844;52.380;7.018;2022-10-12T11:29:11;17.30;99.70
39099;DHT22;24844;52.380;7.018;2022-10-12T11:31:42;16.80;99.90
39099;DHT22;24844;52.380;7.018;2022-10-12T11:34:15;16.00;99.90
39099;DHT22;24844;52.380;7.018;2022-10-12T11:36:45;16.20;99.90
39099;DHT22;24844;52.380;7.018;2022-10-12T11:39:51;16.60;99.90
39099;DHT22;24844;52.380;7.018;2022-10-12T11:42:31;16.20;99.90
39099;DHT22;24844;52.380;7.018;2022-10-12T11:44:59;16.20;99.90
39099;DHT22;24844;52.380;7.018;2022-10-12T11:50:06;15.60;99.90
39099;DHT22;24844;52.380;7.018;2022-10-12T11:52:48;15.40;99.90
39099;DHT22;24844;52.380;7.018;2022-10-12T11:58:18;15.20;99.90
39099;DHT22;24844;52.380;7.018;2022-10-12T12:08:55;15.60;99.90
39099;DHT22;24844;52.380;7.018;2022-10-12T12:11:23;15.80;99.90
39099;DHT22;24844;52.380;7.018;2022-10-12T12:13:50;15.80;99.90
39099;DHT22;24844;52.380;7.018;2022-10-12T12:16:41;15.60;99.90
39099;DHT22;24844;52.380;7.018;2022-10-12T12:19:37;15.40;99.90
39099;DHT22;24844;52.380;7.018;2022-10-12T12:22:27;15.30;99.90
39099;DHT22;24844;52.380;7.018;2022-10-12T12:32:55;15.70;99.90
39099;DHT22;24844;52.380;7.018;2022-10-12T12:40:39;15.50;99.90
39099;DHT22;24844;52.380;7.018;2022-10-12T12:51:11;16.00;99.90
39099;DHT22;24844;52.380;7.018;2022-10-12T12:56:38;16.00;99.90
39099;DHT22;24844;52.380;7.018;2022-10-12T12:59:58;16.20;99.90
39099;DHT22;24844;52.380;7.018;2022-10-12T13:05:21;15.80;99.90
39099;DHT22;24844;52.380;7.018;2022-10-12T13:19:03;16.20;99.90
39099;DHT22;24844;52.380;7.018;2022-10-12T13:21:38;16.20;99.90
39099;DHT22;24844;52.380;7.018;2022-10-12T13:24:29;16.00;99.60
39099;DHT22;24844;52.380;7.018;2022-10-12T13:27:02;15.90;99.80
39099;DHT22;24844;52.380;7.018;2022-10-12T13:29:42;15.80;99.90
39099;DHT22;24844;52.380;7.018;2022-10-12T13:38:25;16.10;99.80
39099;DHT22;24844;52.380;7.018;2022-10-12T13:40:59;16.10;99.00
39099;DHT22;24844;52.380;7.018;2022-10-12T13:45:59;16.30;98.70
39099;DHT22;24844;52.380;7.018;2022-10-12T13:48:25;16.60;99.10
39099;DHT22;24844;52.380;7.018;2022-10-12T13:50:58;16.30;99.10
39099;DHT22;24844;52.380;7.018;2022-10-12T13:53:25;16.20;99.00
39099;DHT22;24844;52.380;7.018;2022-10-12T13:56:00;16.20;98.60
39099;DHT22;24844;52.380;7.018;2022-10-12T13:58:30;16.10;98.10
39099;DHT22;24844;52.380;7.018;2022-10-12T14:00:56;16.40;98.40
39099;DHT22;24844;52.380;7.018;2022-10-12T14:03:33;16.70;98.60
39099;DHT22;24844;52.380;7.018;2022-10-12T14:05:58;16.60;98.50
39099;DHT22;24844;52.380;7.018;2022-10-12T14:08:26;16.60;97.60
39099;DHT22;24844;52.380;7.018;2022-10-12T14:10:53;16.50;97.60
39099;DHT22;24844;52.380;7.018;2022-10-12T14:13:30;16.50;98.20
39099;DHT22;24844;52.380;7.018;2022-10-12T14:15:57;16.50;98.20
39099;DHT22;24844;52.380;7.018;2022-10-12T14:18:53;16.20;97.90
39099;DHT22;24844;52.380;7.018;2022-10-12T14:21:24;16.30;97.80
39099;DHT22;24844;52.380;7.018;2022-10-12T14:23:55;16.30;97.70
39099;DHT22;24844;52.380;7.018;2022-10-12T14:28:55;16.20;98.30
39099;DHT22;24844;52.380;7.018;2022-10-12T14:31:51;16.00;97.40
39099;DHT22;24844;52.380;7.018;2022-10-12T14:37:03;16.20;98.40
39099;DHT22;24844;52.380;7.018;2022-10-12T14:39:29;16.20;98.10
39099;DHT22;24844;52.380;7.018;2022-10-12T14:41:56;16.10;97.30
39099;DHT22;24844;52.380;7.018;2022-10-12T14:44:25;16.00;98.00
39099;DHT22;24844;52.380;7.018;2022-10-12T14:47:03;16.00;97.90
39099;DHT22;24844;52.380;7.018;2022-10-12T14:49:40;15.90;98.20
39099;DHT22;24844;52.380;7.018;2022-10-12T14:52:20;15.90;98.80
39099;DHT22;24844;52.380;7.018;2022-10-12T14:54:53;16.20;98.70
39099;DHT22;24844;52.380;7.018;2022-10-12T14:57:19;16.30;98.40
39099;DHT22;24844;52.380;7.018;2022-10-12T14:59:46;16.10;97.40
39099;DHT22;24844;52.380;7.018;2022-10-12T15:02:18;15.90;97.70
39099;DHT22;24844;52.380;7.018;2022-10-12T15:04:44;15.90;99.20
39099;DHT22;24844;52.380;7.018;2022-10-12T15:07:17;15.90;98.80
39099;DHT22;24844;52.380;7.018;2022-10-12T15:09:43;16.20;99.90
39099;DHT22;24844;52.380;7.018;2022-10-12T15:12:12;16.40;99.90
39099;DHT22;24844;52.380;7.018;2022-10-12T15:14:38;16.40;99.50
39099;DHT22;24844;52.380;7.018;2022-10-12T15:17:04;16.60;98.60
39099;DHT22;24844;52.380;7.018;2022-10-12T15:19:30;16.70;98.30
39099;DHT22;24844;52.380;7.018;2022-10-12T15:21:55;16.70;97.90
39099;DHT22;24844;52.380;7.018;2022-10-12T15:24:21;16.20;97.20
39099;DHT22;24844;52.380;7.018;2022-10-12T15:26:46;16.40;97.80
39099;DHT22;24844;52.380;7.018;2022-10-12T15:29:12;16.30;97.90
39099;DHT22;24844;52.380;7.018;2022-10-12T15:31:37;16.10;97.80
39099;DHT22;24844;52.380;7.018;2022-10-12T15:34:04;16.10;98.40
39099;DHT22;24844;52.380;7.018;2022-10-12T15:36:30;15.80;98.20
39099;DHT22;24844;52.380;7.018;2022-10-12T15:38:55;15.70;98.40
39099;DHT22;24844;52.380;7.018;2022-10-12T15:41:25;15.50;98.70
39099;DHT22;24844;52.380;7.018;2022-10-12T15:43:51;15.50;98.90
39099;DHT22;24844;52.380;7.018;2022-10-12T15:46:16;15.40;99.10
39099;DHT22;24844;52.380;7.018;2022-10-12T15:48:42;15.50;99.20
39099;DHT22;24844;52.380;7.018;2022-10-12T15:51:19;15.40;99.10
39099;DHT22;24844;52.380;7.018;2022-10-12T15:53:47;15.40;99.20
39099;DHT22;24844;52.380;7.018;2022-10-12T15:56:14;15.40;99.30
39099;DHT22;24844;52.380;7.018;2022-10-12T15:58:40;15.30;99.50
39099;DHT22;24844;52.380;7.018;2022-10-12T16:01:13;15.20;99.50
39099;DHT22;24844;52.380;7.018;2022-10-12T16:03:39;15.20;99.90
39099;DHT22;24844;52.380;7.018;2022-10-12T16:06:05;15.20;99.90
39099;DHT22;24844;52.380;7.018;2022-10-12T16:08:31;15.10;99.90
39099;DHT22;24844;52.380;7.018;2022-10-12T16:10:56;15.10;99.90
39099;DHT22;24844;52.380;7.018;2022-10-12T16:13:22;15.20;99.90
39099;DHT22;24844;52.380;7.018;2022-10-12T16:15:48;15.30;99.90
39099;DHT22;24844;52.380;7.018;2022-10-12T16:18:14;15.20;99.90
39099;DHT22;24844;52.380;7.018;2022-10-12T16:20:41;15.20;99.90
39099;DHT22;24844;52.380;7.018;2022-10-12T16:23:19;15.30;99.90
39099;DHT22;24844;52.380;7.018;2022-10-12T16:25:45;15.30;99.90
39099;DHT22;24844;52.380;7.018;2022-10-12T16:28:11;15.10;99.90
39099;DHT22;24844;52.380;7.018;2022-10-12T16:30:37;15.20;99.90
39099;DHT22;24844;52.380;7.018;2022-10-12T16:33:03;14.90;99.90
39099;DHT22;24844;52.380;7.018;2022-10-12T16:35:29;14.90;99.90
39099;DHT22;24844;52.380;7.018;2022-10-12T16:37:54;15.10;99.90
39099;DHT22;24844;52.380;7.018;2022-10-12T16:40:20;15.00;99.90
39099;DHT22;24844;52.380;7.018;2022-10-12T16:42:50;15.10;99.90
39099;DHT22;24844;52.380;7.018;2022-10-12T16:45:21;15.10;99.90
39099;DHT22;24844;52.380;7.018;2022-10-12T16:47:47;15.10;99.90
39099;DHT22;24844;52.380;7.018;2022-10-12T16:50:17;15.00;99.90
39099;DHT22;24844;52.380;7.018;2022-10-12T16:52:43;14.90;99.90
39099;DHT22;24844;52.380;7.018;2022-10-12T16:55:09;14.90;99.90
39099;DHT22;24844;52.380;7.018;2022-10-12T16:57:36;14.80;99.90
39099;DHT22;24844;52.380;7.018;2022-10-12T17:00:03;14.70;99.90
39099;DHT22;24844;52.380;7.018;2022-10-12T17:02:28;14.70;99.90
39099;DHT22;24844;52.380;7.018;2022-10-12T17:04:54;14.60;99.90
39099;DHT22;24844;52.380;7.018;2022-10-12T17:07:20;14.50;99.90
39099;DHT22;24844;52.380;7.018;2022-10-12T17:09:45;14.30;99.90
39099;DHT22;24844;52.380;7.018;2022-10-12T17:12:11;14.20;99.90
39099;DHT22;24844;52.380;7.018;2022-10-12T17:14:37;14.10;99.90
39099;DHT22;24844;52.380;7.018;2022-10-12T17:17:03;13.90;99.90
39099;DHT22;24844;52.380;7.018;2022-10-12T17:19:31;13.70;99.90
39099;DHT22;24844;52.380;7.018;2022-10-12T17:21:58;13.60;99.90
39099;DHT22;24844;52.380;7.018;2022-10-12T17:24:29;13.30;99.90
39099;DHT22;24844;52.380;7.018;2022-10-12T17:26:56;13.30;99.90
39099;DHT22;24844;52.380;7.018;2022-10-12T17:29:23;13.20;99.90
39099;DHT22;24844;52.380;7.018;2022-10-12T17:31:50;13.10;99.90
39099;DHT22;24844;52.380;7.018;2022-10-12T17:34:24;13.20;99.90
39099;DHT22;24844;52.380;7.018;2022-10-12T17:36:52;13.20;99.90
39099;DHT22;24844;52.380;7.018;2022-10-12T17:39:18;13.20;99.90
39099;DHT22;24844;52.380;7.018;2022-10-12T17:41:44;13.00;99.90
39099;DHT22;24844;52.380;7.018;2022-10-12T17:44:09;12.90;99.90
39099;DHT22;24844;52.380;7.018;2022-10-12T17:46:40;12.90;99.90
39099;DHT22;24844;52.380;7.018;2022-10-12T17:49:07;12.90;99.90
39099;DHT22;24844;52.380;7.018;2022-10-12T17:51:34;12.80;99.90
39099;DHT22;24844;52.380;7.018;2022-10-12T17:54:00;12.70;99.90
39099;DHT22;24844;52.380;7.018;2022-10-12T17:56:25;12.70;99.90
39099;DHT22;24844;52.380;7.018;2022-10-12T17:58:53;12.60;99.90
39099;DHT22;24844;52.380;7.018;2022-10-12T18:01:18;12.40;99.90
39099;DHT22;24844;52.380;7.018;2022-10-12T18:03:44;12.50;99.90
39099;DHT22;24844;52.380;7.018;2022-10-12T18:06:14;12.40;99.90
39099;DHT22;24844;52.380;7.018;2022-10-12T18:08:41;12.50;99.90
39099;DHT22;24844;52.380;7.018;2022-10-12T18:11:07;12.50;99.90
39099;DHT22;24844;52.380;7.018;2022-10-12T18:13:34;12.50;99.90
39099;DHT22;24844;52.380;7.018;2022-10-12T18:16:01;12.40;99.90
39099;DHT22;24844;52.380;7.018;2022-10-12T18:18:27;12.50;99.90
39099;DHT22;24844;52.380;7.018;2022-10-12T18:20:53;12.50;99.90
39099;DHT22;24844;52.380;7.018;2022-10-12T18:23:18;12.50;99.90
39099;DHT22;24844;52.380;7.018;2022-10-12T18:25:44;12.50;99.90
39099;DHT22;24844;52.380;7.018;2022-10-12T18:28:13;12.50;99.90
39099;DHT22;24844;52.380;7.018;2022-10-12T18:30:47;12.40;99.90
39099;DHT22;24844;52.380;7.018;2022-10-12T18:33:14;12.40;99.90
39099;DHT22;24844;52.380;7.018;2022-10-12T18:35:40;12.30;99.90
39099;DHT22;24844;52.380;7.018;2022-10-12T18:38:06;12.20;99.90
39099;DHT22;24844;52.380;7.018;2022-10-12T18:40:33;12.40;99.90
39099;DHT22;24844;52.380;7.018;2022-10-12T18:42:59;12.40;99.90
39099;DHT22;24844;52.380;7.018;2022-10-12T18:45:24;12.40;99.90
39099;DHT22;24844;52.380;7.018;2022-10-12T18:47:50;12.40;99.90
39099;DHT22;24844;52.380;7.018;2022-10-12T18:50:17;12.40;99.90
39099;DHT22;24844;52.380;7.018;2022-10-12T18:52:42;12.40;99.90
39099;DHT22;24844;52.380;7.018;2022-10-12T18:55:08;12.40;99.90
39099;DHT22;24844;52.380;7.018;2022-10-12T18:57:35;12.40;99.90
39099;DHT22;24844;52.380;7.018;2022-10-12T19:00:01;12.40;99.90
39099;DHT22;24844;52.380;7.018;2022-10-12T19:02:26;12.30;99.90
39099;DHT22;24844;52.380;7.018;2022-10-12T19:04:52;12.10;99.90
39099;DHT22;24844;52.380;7.018;2022-10-12T19:07:17;12.00;99.90
39099;DHT22;24844;52.380;7.018;2022-10-12T19:09:43;12.00;99.90
39099;DHT22;24844;52.380;7.018;2022-10-12T19:12:09;11.90;99.90
39099;DHT22;24844;52.380;7.018;2022-10-12T19:14:34;11.80;99.90
39099;DHT22;24844;52.380;7.018;2022-10-12T19:17:00;11.70;99.90
39099;DHT22;24844;52.380;7.018;2022-10-12T19:19:25;11.60;99.90
39099;DHT22;24844;52.380;7.018;2022-10-12T19:21:51;11.50;99.90
39099;DHT22;24844;52.380;7.018;2022-10-12T19:24:19;11.50;99.90
39099;DHT22;24844;52.380;7.018;2022-10-12T19:26:46;11.40;99.90
39099;DHT22;24844;52.380;7.018;2022-10-12T19:29:12;11.30;99.90
39099;DHT22;24844;52.380;7.018;2022-10-12T19:31:41;11.10;99.90
39099;DHT22;24844;52.380;7.018;2022-10-12T19:34:08;11.10;99.90
39099;DHT22;24844;52.380;7.018;2022-10-12T19:36:35;11.00;99.90
39099;DHT22;24844;52.380;7.018;2022-10-12T19:39:04;10.90;99.90
39099;DHT22;24844;52.380;7.018;2022-10-12T19:41:30;10.90;99.90
39099;DHT22;24844;52.380;7.018;2022-10-12T19:43:58;10.80;99.90
39099;DHT22;24844;52.380;7.018;2022-10-12T19:46:24;10.80;99.90
39099;DHT22;24844;52.380;7.018;2022-10-12T19:48:51;10.70;99.90
39099;DHT22;24844;52.380;7.018;2022-10-12T19:51:17;10.60;99.90
39099;DHT22;24844;52.380;7.018;2022-10-12T19:53:43;10.40;99.90
39099;DHT22;24844;52.380;7.018;2022-10-12T19:56:14;10.40;99.90
39099;DHT22;24844;52.380;7.018;2022-10-12T19:58:42;10.40;99.90
39099;DHT22;24844;52.380;7.018;2022-10-12T20:01:11;10.30;99.90
39099;DHT22;24844;52.380;7.018;2022-10-12T20:03:36;10.20;99.90
39099;DHT22;24844;52.380;7.018;2022-10-12T20:06:03;10.10;99.90
39099;DHT22;24844;52.380;7.018;2022-10-12T20:08:35;10.10;99.90
39099;DHT22;24844;52.380;7.018;2022-10-12T20:11:02;10.10;99.90
39099;DHT22;24844;52.380;7.018;2022-10-12T20:13:27;10.00;99.90
39099;DHT22;24844;52.380;7.018;2022-10-12T20:15:54;9.90;99.90
39099;DHT22;24844;52.380;7.018;2022-10-12T20:18:20;9.90;99.90
39099;DHT22;24844;52.380;7.018;2022-10-12T20:20:46;9.80;99.90
39099;DHT22;24844;52.380;7.018;2022-10-12T20:23:13;9.70;99.90
39099;DHT22;24844;52.380;7.018;2022-10-12T20:25:40;9.70;99.90
39099;DHT22;24844;52.380;7.018;2022-10-12T20:28:05;9.70;99.90
39099;DHT22;24844;52.380;7.018;2022-10-12T20:30:31;9.70;99.90
39099;DHT22;24844;52.380;7.018;2022-10-12T20:32:56;9.70;99.90
39099;DHT22;24844;52.380;7.018;2022-10-12T20:35:22;9.70;99.90
39099;DHT22;24844;52.380;7.018;2022-10-12T20:37:47;9.70;99.90
39099;DHT22;24844;52.380;7.018;2022-10-12T20:40:13;9.70;99.90
39099;DHT22;24844;52.380;7.018;2022-10-12T20:42:39;9.70;99.90
39099;DHT22;24844;52.380;7.018;2022-10-12T20:45:05;9.70;99.90
39099;DHT22;24844;52.380;7.018;2022-10-12T20:47:30;9.50;99.90